createdAt,value
2023-02-26T00:03:32.138Z,1.30
2023-02-26T00:09:27.060Z,1.20
2023-02-26T00:15:21.610Z,1.40
2023-02-26T00:21:18.682Z,1.70
2023-02-26T00:27:13.884Z,1.70
2023-02-26T00:33:08.074Z,1.60
2023-02-26T00:39:10.761Z,1.10
2023-02-26T00:45:07.395Z,1.10
2023-02-26T00:51:09.938Z,1.00
2023-02-26T00:57:04.688Z,1.10
2023-02-26T01:03:00.220Z,1.00
2023-02-26T01:09:00.913Z,0.90
2023-02-26T01:14:54.784Z,1.00
2023-02-26T01:20:52.852Z,1.00
2023-02-26T01:26:48.064Z,0.90
2023-02-26T01:32:46.355Z,0.90
2023-02-26T01:38:46.397Z,0.80
2023-02-26T01:44:48.360Z,0.80
2023-02-26T01:50:42.357Z,0.80
2023-02-26T01:56:37.740Z,0.80
2023-02-26T02:02:31.386Z,0.80
2023-02-26T02:08:26.112Z,0.80
2023-02-26T02:14:28.707Z,0.80
2023-02-26T02:20:58.769Z,1.10
2023-02-26T02:27:01.081Z,0.90
2023-02-26T02:32:59.950Z,0.70
2023-02-26T02:38:57.583Z,0.80
2023-02-26T02:44:55.492Z,0.70
2023-02-26T02:50:54.376Z,0.80
2023-02-26T02:56:52.405Z,0.80
2023-02-26T03:02:52.414Z,0.90
2023-02-26T03:08:49.585Z,0.80
2023-02-26T03:14:43.969Z,0.80
2023-02-26T03:20:44.524Z,0.80
2023-02-26T03:26:44.323Z,0.70
2023-02-26T03:32:47.077Z,0.80
2023-02-26T03:38:57.255Z,0.70
2023-02-26T03:44:57.228Z,0.70
2023-02-26T03:50:54.571Z,0.60
2023-02-26T03:57:12.746Z,0.50
2023-02-26T04:03:34.194Z,0.50
2023-02-26T04:09:28.670Z,0.40
2023-02-26T04:15:22.601Z,0.40
2023-02-26T04:21:20.231Z,0.40
2023-02-26T04:27:14.384Z,0.30
2023-02-26T04:33:08.061Z,0.30
2023-02-26T04:39:03.106Z,0.30
2023-02-26T04:44:57.622Z,0.30
2023-02-26T04:50:52.488Z,0.10
2023-02-26T04:56:47.098Z,0.10
2023-02-26T05:02:40.150Z,0.10
2023-02-26T05:08:33.174Z,0.00
2023-02-26T05:14:27.591Z,0.00
2023-02-26T05:20:20.858Z,0.00
2023-02-26T05:26:14.434Z,0.10
2023-02-26T05:32:09.813Z,0.00
2023-02-26T05:38:02.933Z,-0.10
2023-02-26T05:43:55.923Z,0.00
2023-02-26T05:49:50.227Z,-0.10
2023-02-26T05:55:43.711Z,-0.20
2023-02-26T06:01:37.483Z,-0.40
2023-02-26T06:07:32.331Z,-0.30
2023-02-26T06:13:25.768Z,-0.40
2023-02-26T06:19:18.902Z,-0.50
2023-02-26T06:25:13.832Z,-0.40
2023-02-26T06:31:06.867Z,-0.30
2023-02-26T06:36:59.886Z,-0.50
2023-02-26T06:42:54.340Z,-0.20
2023-02-26T06:48:47.306Z,-0.30
2023-02-26T06:54:40.295Z,-0.30
2023-02-26T07:00:36.596Z,-0.30
2023-02-26T07:06:30.242Z,-0.10
2023-02-26T07:12:23.708Z,-0.10
2023-02-26T07:18:18.024Z,-0.10
2023-02-26T07:24:11.029Z,0.00
2023-02-26T07:30:05.401Z,0.10
2023-02-26T07:35:59.936Z,0.20
2023-02-26T07:41:52.939Z,0.40
2023-02-26T07:47:46.885Z,0.30
2023-02-26T07:53:41.198Z,0.70
2023-02-26T07:59:34.593Z,0.90
2023-02-26T08:05:30.055Z,1.10
2023-02-26T08:11:25.118Z,1.20
2023-02-26T08:17:18.164Z,1.30
2023-02-26T08:23:11.750Z,1.40
2023-02-26T08:29:07.467Z,1.30
2023-02-26T08:35:00.966Z,1.50
2023-02-26T08:40:53.921Z,1.60
2023-02-26T08:46:49.165Z,1.60
2023-02-26T08:52:42.419Z,1.70
2023-02-26T08:58:35.487Z,1.80
2023-02-26T09:04:31.503Z,2.00
2023-02-26T09:10:24.938Z,2.20
2023-02-26T09:16:17.969Z,2.30
2023-02-26T09:23:00.418Z,2.40
2023-02-26T09:29:00.344Z,2.50
2023-02-26T09:34:54.125Z,2.70
2023-02-26T09:40:52.111Z,2.90
2023-02-26T09:46:57.035Z,3.00
2023-02-26T09:52:55.527Z,3.40
2023-02-26T09:58:49.064Z,4.00
2023-02-26T10:05:02.388Z,4.80
2023-02-26T10:11:02.069Z,5.60
2023-02-26T10:17:01.136Z,7.10
2023-02-26T10:23:03.209Z,8.00
2023-02-26T10:29:02.969Z,8.60
2023-02-26T10:34:58.177Z,8.60
2023-02-26T10:40:57.346Z,9.10
2023-02-26T10:46:58.776Z,9.80
2023-02-26T10:52:53.731Z,8.90
2023-02-26T10:58:48.124Z,9.60
2023-02-26T11:04:41.223Z,10.30
2023-02-26T11:10:42.521Z,11.00
2023-02-26T11:16:42.195Z,11.40
2023-02-26T11:22:36.484Z,12.30
2023-02-26T11:28:33.071Z,11.70
2023-02-26T11:34:27.820Z,9.10
2023-02-26T11:40:38.417Z,9.40
2023-02-26T11:46:32.017Z,10.10
2023-02-26T11:52:30.326Z,9.70
2023-02-26T11:58:25.523Z,11.50
2023-02-26T12:04:21.640Z,12.20
2023-02-26T12:10:20.332Z,12.60
2023-02-26T12:16:21.083Z,10.70
2023-02-26T12:22:35.446Z,8.40
2023-02-26T12:28:49.212Z,6.60
2023-02-26T12:35:09.937Z,6.30
2023-02-26T12:41:40.353Z,6.10
2023-02-26T12:47:49.035Z,6.20
2023-02-26T12:54:01.405Z,6.70
2023-02-26T13:00:20.867Z,6.50
2023-02-26T13:06:39.287Z,6.90
2023-02-26T13:12:43.480Z,7.00
2023-02-26T13:18:45.098Z,7.40
2023-02-26T13:24:43.452Z,6.90
2023-02-26T13:30:42.194Z,6.40
2023-02-26T13:36:35.556Z,6.40
2023-02-26T13:42:38.824Z,6.50
2023-02-26T13:48:44.040Z,6.80
2023-02-26T13:54:45.599Z,6.50
2023-02-26T14:00:48.544Z,5.80
2023-02-26T14:06:44.656Z,5.80
2023-02-26T14:12:39.239Z,5.80
2023-02-26T14:18:38.360Z,6.10
2023-02-26T14:24:37.082Z,6.50
2023-02-26T14:30:34.324Z,7.10
2023-02-26T14:36:37.044Z,6.10
2023-02-26T14:42:36.758Z,6.50
2023-02-26T14:48:30.176Z,7.60
2023-02-26T14:54:40.482Z,7.00
2023-02-26T15:00:43.408Z,8.40
2023-02-26T15:06:53.935Z,8.50
2023-02-26T15:13:08.500Z,7.50
2023-02-26T15:19:15.669Z,7.40
2023-02-26T15:25:20.405Z,7.10
2023-02-26T15:31:15.557Z,6.50
2023-02-26T15:37:19.556Z,6.50
2023-02-26T15:43:17.783Z,6.10
2023-02-26T15:49:18.283Z,6.60
2023-02-26T15:55:18.356Z,6.80
2023-02-26T16:01:17.557Z,6.80
2023-02-26T16:07:14.086Z,6.70
2023-02-26T16:13:09.054Z,6.20
2023-02-26T16:19:02.580Z,6.00
2023-02-26T16:25:01.734Z,5.70
2023-02-26T16:30:57.594Z,5.40
2023-02-26T16:36:51.745Z,5.20
2023-02-26T16:43:01.390Z,5.10
2023-02-26T16:48:57.111Z,4.90
2023-02-26T16:54:56.932Z,4.70
2023-02-26T17:00:58.369Z,4.90
2023-02-26T17:06:52.725Z,4.70
2023-02-26T17:12:48.060Z,4.70
2023-02-26T17:18:42.815Z,4.50
2023-02-26T17:24:40.781Z,4.50
2023-02-26T17:30:34.640Z,4.60
2023-02-26T17:36:30.388Z,4.40
2023-02-26T17:42:23.850Z,4.50
2023-02-26T17:48:18.288Z,4.40
2023-02-26T17:54:12.600Z,4.30
2023-02-26T18:00:06.869Z,4.00
2023-02-26T18:06:09.252Z,3.80
2023-02-26T18:12:04.252Z,3.70
2023-02-26T18:17:59.177Z,3.90
2023-02-26T18:23:52.651Z,3.90
2023-02-26T18:29:48.120Z,3.80
2023-02-26T18:35:45.890Z,3.60
2023-02-26T18:41:39.337Z,3.60
2023-02-26T18:47:34.099Z,3.60
2023-02-26T18:53:27.996Z,3.50
2023-02-26T18:59:21.416Z,3.40
2023-02-26T19:05:16.897Z,3.40
2023-02-26T19:11:10.459Z,3.50
2023-02-26T19:17:04.110Z,3.20
2023-02-26T19:22:58.446Z,3.20
2023-02-26T19:28:51.516Z,2.90
2023-02-26T19:34:44.698Z,2.90
2023-02-26T19:40:39.540Z,2.80
2023-02-26T19:46:33.111Z,2.90
2023-02-26T19:52:28.452Z,3.00
2023-02-26T19:58:23.191Z,2.90
2023-02-26T20:04:16.598Z,2.70
2023-02-26T20:10:11.865Z,2.80
2023-02-26T20:16:08.927Z,3.00
2023-02-26T20:22:02.495Z,2.90
2023-02-26T20:27:55.854Z,2.90
2023-02-26T20:33:50.631Z,2.80
2023-02-26T20:39:43.909Z,2.70
2023-02-26T20:45:37.957Z,2.70
2023-02-26T20:51:32.862Z,2.70
2023-02-26T20:57:26.254Z,2.80
2023-02-26T21:03:19.661Z,2.70
2023-02-26T21:09:14.081Z,2.60
2023-02-26T21:15:10.676Z,2.70
2023-02-26T21:21:05.253Z,2.60
2023-02-26T21:27:00.068Z,2.40
2023-02-26T21:32:53.632Z,2.50
2023-02-26T21:38:47.097Z,2.60
2023-02-26T21:44:42.100Z,2.60
2023-02-26T21:50:36.243Z,2.40
2023-02-26T21:56:29.725Z,2.20
2023-02-26T22:02:24.527Z,2.30
2023-02-26T22:08:17.984Z,2.40
2023-02-26T22:14:11.120Z,2.50
2023-02-26T22:20:09.746Z,2.10
2023-02-26T22:26:03.815Z,2.10
2023-02-26T22:31:56.881Z,2.10
2023-02-26T22:37:51.924Z,1.90
2023-02-26T22:43:45.356Z,1.80
2023-02-26T22:49:38.944Z,1.80
2023-02-26T22:55:33.710Z,1.90
2023-02-26T23:01:27.283Z,2.40
2023-02-26T23:07:20.752Z,2.20
2023-02-26T23:13:16.040Z,1.90
2023-02-26T23:19:09.563Z,1.90
2023-02-26T23:25:03.010Z,2.00
2023-02-26T23:30:57.884Z,2.00
2023-02-26T23:36:51.416Z,1.80
2023-02-26T23:42:44.979Z,1.70
2023-02-26T23:48:39.300Z,1.90
2023-02-26T23:54:32.872Z,1.70
